sensor_id;sensor_type;location;lat;lon;timestamp;pressure;altitude;pressure_sealevel;temperature
74915;BMP280;63475;45.140;-75.616;2022-11-15T00:00:13;101908.22;;;1.74
74915;BMP280;63475;45.140;-75.616;2022-11-15T00:01:17;101881.97;;;1.57
74915;BMP280;63475;45.140;-75.616;2022-11-15T00:02:18;101910.53;;;1.76
74915;BMP280;63475;45.140;-75.616;2022-11-15T00:03:21;101895.09;;;1.66
74915;BMP280;63475;45.140;-75.616;2022-11-15T00:04:23;101916.22;;;1.78
74915;BMP280;63475;45.140;-75.616;2022-11-15T00:05:24;101910.13;;;1.69
74915;BMP280;63475;45.140;-75.616;2022-11-15T00:06:25;101917.88;;;1.74
74915;BMP280;63475;45.140;-75.616;2022-11-15T00:07:26;101920.56;;;1.69
74915;BMP280;63475;45.140;-75.616;2022-11-15T00:08:29;101916.91;;;1.70
74915;BMP280;63475;45.140;-75.616;2022-11-15T00:09:31;101921.03;;;1.71
74915;BMP280;63475;45.140;-75.616;2022-11-15T00:10:32;101923.66;;;1.71
74915;BMP280;63475;45.140;-75.616;2022-11-15T00:11:33;101922.69;;;1.67
74915;BMP280;63475;45.140;-75.616;2022-11-15T00:12:34;101919.13;;;1.63
74915;BMP280;63475;45.140;-75.616;2022-11-15T00:13:35;101922.69;;;1.67
74915;BMP280;63475;45.140;-75.616;2022-11-15T00:14:36;101920.56;;;1.69
74915;BMP280;63475;45.140;-75.616;2022-11-15T00:15:37;101927.03;;;1.71
74915;BMP280;63475;45.140;-75.616;2022-11-15T00:16:39;101926.72;;;1.73
74915;BMP280;63475;45.140;-75.616;2022-11-15T00:17:40;101922.03;;;1.75
74915;BMP280;63475;45.140;-75.616;2022-11-15T00:18:41;101913.22;;;1.71
74915;BMP280;63475;45.140;-75.616;2022-11-15T00:19:42;101908.59;;;1.68
74915;BMP280;63475;45.140;-75.616;2022-11-15T00:20:43;101898.66;;;1.56
74915;BMP280;63475;45.140;-75.616;2022-11-15T00:21:44;101919.03;;;1.68
74915;BMP280;63475;45.140;-75.616;2022-11-15T00:22:45;101916.69;;;1.66
74915;BMP280;63475;45.140;-75.616;2022-11-15T00:23:46;101917.09;;;1.59
74915;BMP280;63475;45.140;-75.616;2022-11-15T00:24:47;101922.31;;;1.59
74915;BMP280;63475;45.140;-75.616;2022-11-15T00:25:55;101913.13;;;1.62
74915;BMP280;63475;45.140;-75.616;2022-11-15T00:28:53;101920.09;;;1.53
74915;BMP280;63475;45.140;-75.616;2022-11-15T00:29:55;101916.72;;;1.52
74915;BMP280;63475;45.140;-75.616;2022-11-15T00:31:04;101919.78;;;1.54
74915;BMP280;63475;45.140;-75.616;2022-11-15T00:32:05;101921.16;;;1.52
74915;BMP280;63475;45.140;-75.616;2022-11-15T00:33:06;101895.19;;;1.33
74915;BMP280;63475;45.140;-75.616;2022-11-15T00:34:09;101901.47;;;1.32
74915;BMP280;63475;45.140;-75.616;2022-11-15T00:35:10;101868.28;;;1.10
74915;BMP280;63475;45.140;-75.616;2022-11-15T00:36:11;101919.50;;;1.42
74915;BMP280;63475;45.140;-75.616;2022-11-15T00:37:12;101906.69;;;1.32
74915;BMP280;63475;45.140;-75.616;2022-11-15T00:38:25;101918.25;;;1.40
74915;BMP280;63475;45.140;-75.616;2022-11-15T00:39:26;101919.41;;;1.34
74915;BMP280;63475;45.140;-75.616;2022-11-15T00:40:27;101920.47;;;1.33
74915;BMP280;63475;45.140;-75.616;2022-11-15T00:41:28;101893.25;;;1.11
74915;BMP280;63475;45.140;-75.616;2022-11-15T00:42:29;101900.00;;;1.12
74915;BMP280;63475;45.140;-75.616;2022-11-15T00:43:30;101925.97;;;1.31
74915;BMP280;63475;45.140;-75.616;2022-11-15T00:44:31;101931.75;;;1.28
74915;BMP280;63475;45.140;-75.616;2022-11-15T00:45:32;101928.66;;;1.26
74915;BMP280;63475;45.140;-75.616;2022-11-15T00:46:33;101929.53;;;1.21
74915;BMP280;63475;45.140;-75.616;2022-11-15T00:47:49;101928.53;;;1.17
74915;BMP280;63475;45.140;-75.616;2022-11-15T00:48:50;101852.34;;;0.66
74915;BMP280;63475;45.140;-75.616;2022-11-15T00:49:51;101928.06;;;1.15
74915;BMP280;63475;45.140;-75.616;2022-11-15T00:50:52;101876.09;;;0.78
74915;BMP280;63475;45.140;-75.616;2022-11-15T00:51:52;101916.63;;;0.98
74915;BMP280;63475;45.140;-75.616;2022-11-15T00:52:53;101929.84;;;1.01
74915;BMP280;63475;45.140;-75.616;2022-11-15T00:53:54;101931.47;;;0.97
74915;BMP280;63475;45.140;-75.616;2022-11-15T00:54:55;101915.44;;;0.90
74915;BMP280;63475;45.140;-75.616;2022-11-15T00:55:56;101901.47;;;0.86
74915;BMP280;63475;45.140;-75.616;2022-11-15T00:56:57;101940.97;;;1.07
74915;BMP280;63475;45.140;-75.616;2022-11-15T00:57:58;101902.53;;;0.85
74915;BMP280;63475;45.140;-75.616;2022-11-15T00:58:59;101864.66;;;0.60
74915;BMP280;63475;45.140;-75.616;2022-11-15T01:00:00;101944.06;;;1.09
74915;BMP280;63475;45.140;-75.616;2022-11-15T01:01:12;101944.63;;;1.06
74915;BMP280;63475;45.140;-75.616;2022-11-15T01:02:13;101942.50;;;1.08
74915;BMP280;63475;45.140;-75.616;2022-11-15T01:03:14;101907.94;;;0.88
74915;BMP280;63475;45.140;-75.616;2022-11-15T01:04:15;101925.91;;;1.04
74915;BMP280;63475;45.140;-75.616;2022-11-15T01:05:16;101903.31;;;0.85
74915;BMP280;63475;45.140;-75.616;2022-11-15T01:06:17;101929.84;;;1.01
74915;BMP280;63475;45.140;-75.616;2022-11-15T01:07:18;101945.03;;;1.13
74915;BMP280;63475;45.140;-75.616;2022-11-15T01:08:19;101950.03;;;1.09
74915;BMP280;63475;45.140;-75.616;2022-11-15T01:09:20;101952.34;;;1.11
74915;BMP280;63475;45.140;-75.616;2022-11-15T01:10:22;101949.88;;;1.19
74915;BMP280;63475;45.140;-75.616;2022-11-15T01:11:23;101947.16;;;1.11
74915;BMP280;63475;45.140;-75.616;2022-11-15T01:12:24;101957.66;;;1.06
74915;BMP280;63475;45.140;-75.616;2022-11-15T01:13:25;101962.06;;;1.05
74915;BMP280;63475;45.140;-75.616;2022-11-15T01:14:26;101965.28;;;1.16
74915;BMP280;63475;45.140;-75.616;2022-11-15T01:15:27;101964.22;;;1.17
74915;BMP280;63475;45.140;-75.616;2022-11-15T01:16:28;101943.44;;;0.98
74915;BMP280;63475;45.140;-75.616;2022-11-15T01:17:30;101970.78;;;1.14
74915;BMP280;63475;45.140;-75.616;2022-11-15T01:18:31;101937.25;;;0.94
74915;BMP280;63475;45.140;-75.616;2022-11-15T01:19:32;101969.53;;;1.25
74915;BMP280;63475;45.140;-75.616;2022-11-15T01:20:33;101969.34;;;1.36
74915;BMP280;63475;45.140;-75.616;2022-11-15T01:21:34;101966.28;;;1.34
74915;BMP280;63475;45.140;-75.616;2022-11-15T01:22:34;101969.16;;;1.32
74915;BMP280;63475;45.140;-75.616;2022-11-15T01:23:36;101968.56;;;1.35
74915;BMP280;63475;45.140;-75.616;2022-11-15T01:24:37;101971.38;;;1.39
74915;BMP280;63475;45.140;-75.616;2022-11-15T01:25:38;101907.19;;;1.02
74915;BMP280;63475;45.140;-75.616;2022-11-15T01:26:39;101965.13;;;1.40
74915;BMP280;63475;45.140;-75.616;2022-11-15T01:27:40;101935.59;;;1.17
74915;BMP280;63475;45.140;-75.616;2022-11-15T01:28:41;101964.13;;;1.36
74915;BMP280;63475;45.140;-75.616;2022-11-15T01:29:42;101939.44;;;1.19
74915;BMP280;63475;45.140;-75.616;2022-11-15T01:30:43;101971.31;;;1.44
74915;BMP280;63475;45.140;-75.616;2022-11-15T01:31:57;101957.22;;;1.31
74915;BMP280;63475;45.140;-75.616;2022-11-15T01:33:04;101935.97;;;1.10
74915;BMP280;63475;45.140;-75.616;2022-11-15T01:34:05;101971.09;;;1.40
74915;BMP280;63475;45.140;-75.616;2022-11-15T01:35:06;101934.03;;;1.16
74915;BMP280;63475;45.140;-75.616;2022-11-15T01:36:19;101929.97;;;1.10
74915;BMP280;63475;45.140;-75.616;2022-11-15T01:37:22;101981.53;;;1.40
74915;BMP280;63475;45.140;-75.616;2022-11-15T01:38:24;101982.59;;;1.39
74915;BMP280;63475;45.140;-75.616;2022-11-15T01:39:24;101963.56;;;1.25
74915;BMP280;63475;45.140;-75.616;2022-11-15T01:40:26;101975.81;;;1.38
74915;BMP280;63475;45.140;-75.616;2022-11-15T01:41:30;101982.97;;;1.33
74915;BMP280;63475;45.140;-75.616;2022-11-15T01:42:32;101970.41;;;1.21
74915;BMP280;63475;45.140;-75.616;2022-11-15T01:43:35;101984.78;;;1.32
74915;BMP280;63475;45.140;-75.616;2022-11-15T01:44:42;101981.13;;;1.33
74915;BMP280;63475;45.140;-75.616;2022-11-15T01:50:03;101989.50;;;1.30
74915;BMP280;63475;45.140;-75.616;2022-11-15T01:51:06;101977.72;;;1.19
74915;BMP280;63475;45.140;-75.616;2022-11-15T01:52:12;101975.28;;;1.09
74915;BMP280;63475;45.140;-75.616;2022-11-15T01:53:14;101995.94;;;1.19
74915;BMP280;63475;45.140;-75.616;2022-11-15T01:54:18;101961.16;;;0.96
74915;BMP280;63475;45.140;-75.616;2022-11-15T01:55:24;101994.69;;;1.16
74915;BMP280;63475;45.140;-75.616;2022-11-15T01:56:28;101992.47;;;1.10
74915;BMP280;63475;45.140;-75.616;2022-11-15T01:57:30;102003.34;;;1.12
74915;BMP280;63475;45.140;-75.616;2022-11-15T01:58:31;101987.47;;;1.13
74915;BMP280;63475;45.140;-75.616;2022-11-15T01:59:33;101992.94;;;1.12
74915;BMP280;63475;45.140;-75.616;2022-11-15T02:00:34;101992.47;;;1.10
74915;BMP280;63475;45.140;-75.616;2022-11-15T02:01:35;101959.91;;;0.93
74915;BMP280;63475;45.140;-75.616;2022-11-15T02:02:37;101979.31;;;0.82
74915;BMP280;63475;45.140;-75.616;2022-11-15T02:03:53;101997.38;;;0.92
74915;BMP280;63475;45.140;-75.616;2022-11-15T02:04:57;101982.13;;;0.86
74915;BMP280;63475;45.140;-75.616;2022-11-15T02:05:57;101994.13;;;1.01
74915;BMP280;63475;45.140;-75.616;2022-11-15T02:06:59;102003.16;;;1.08
74915;BMP280;63475;45.140;-75.616;2022-11-15T02:08:02;101931.38;;;0.70
74915;BMP280;63475;45.140;-75.616;2022-11-15T02:09:03;101992.47;;;1.10
74915;BMP280;63475;45.140;-75.616;2022-11-15T02:10:13;101984.72;;;1.05
74915;BMP280;63475;45.140;-75.616;2022-11-15T02:11:15;101949.31;;;0.71
74915;BMP280;63475;45.140;-75.616;2022-11-15T02:12:19;101994.13;;;1.01
74915;BMP280;63475;45.140;-75.616;2022-11-15T02:13:21;101995.47;;;0.98
74915;BMP280;63475;45.140;-75.616;2022-11-15T02:14:22;101993.31;;;0.86
74915;BMP280;63475;45.140;-75.616;2022-11-15T02:15:28;101883.75;;;0.18
74915;BMP280;63475;45.140;-75.616;2022-11-15T02:28:35;102013.41;;;0.62
74915;BMP280;63475;45.140;-75.616;2022-11-15T02:29:53;102008.84;;;0.54
74915;BMP280;63475;45.140;-75.616;2022-11-15T02:31:13;102008.91;;;0.49
74915;BMP280;63475;45.140;-75.616;2022-11-15T02:32:21;102017.97;;;0.51
74915;BMP280;63475;45.140;-75.616;2022-11-15T02:37:15;102016.34;;;0.37
74915;BMP280;63475;45.140;-75.616;2022-11-15T02:40:34;102020.69;;;0.22
74915;BMP280;63475;45.140;-75.616;2022-11-15T02:42:08;102010.06;;;0.19
74915;BMP280;63475;45.140;-75.616;2022-11-15T02:43:38;102015.84;;;0.16
74915;BMP280;63475;45.140;-75.616;2022-11-15T02:45:03;102007.75;;;0.17
74915;BMP280;63475;45.140;-75.616;2022-11-15T02:46:14;102020.19;;;0.20
74915;BMP280;63475;45.140;-75.616;2022-11-15T02:47:17;102010.41;;;0.12
74915;BMP280;63475;45.140;-75.616;2022-11-15T02:48:21;102002.00;;;0.20
74915;BMP280;63475;45.140;-75.616;2022-11-15T02:49:28;101964.97;;;-0.14
74915;BMP280;63475;45.140;-75.616;2022-11-15T02:50:32;101964.09;;;-0.28
74915;BMP280;63475;45.140;-75.616;2022-11-15T02:51:33;101999.72;;;-0.10
74915;BMP280;63475;45.140;-75.616;2022-11-15T02:52:35;102005.63;;;-0.05
74915;BMP280;63475;45.140;-75.616;2022-11-15T02:53:36;101998.69;;;-0.09
74915;BMP280;63475;45.140;-75.616;2022-11-15T02:54:36;102005.63;;;-0.05
74915;BMP280;63475;45.140;-75.616;2022-11-15T02:55:48;101971.91;;;-0.34
74915;BMP280;63475;45.140;-75.616;2022-11-15T02:56:58;102012.44;;;-0.09
74915;BMP280;63475;45.140;-75.616;2022-11-15T03:00:47;102012.00;;;-0.16
74915;BMP280;63475;45.140;-75.616;2022-11-15T03:02:36;102003.25;;;-0.25
74915;BMP280;63475;45.140;-75.616;2022-11-15T03:04:57;102011.59;;;-0.28
74915;BMP280;63475;45.140;-75.616;2022-11-15T03:07:20;101968.25;;;-0.62
74915;BMP280;63475;45.140;-75.616;2022-11-15T03:10:21;102010.94;;;-0.44
74915;BMP280;63475;45.140;-75.616;2022-11-15T03:11:24;102009.88;;;-0.43
74915;BMP280;63475;45.140;-75.616;2022-11-15T03:12:43;101998.03;;;-0.54
74915;BMP280;63475;45.140;-75.616;2022-11-15T03:13:57;102014.06;;;-0.47
74915;BMP280;63475;45.140;-75.616;2022-11-15T03:15:13;102015.91;;;-0.47
74915;BMP280;63475;45.140;-75.616;2022-11-15T03:17:30;102011.84;;;-0.58
74915;BMP280;63475;45.140;-75.616;2022-11-15T03:18:37;102015.72;;;-0.56
74915;BMP280;63475;45.140;-75.616;2022-11-15T03:19:47;102012.06;;;-0.55
74915;BMP280;63475;45.140;-75.616;2022-11-15T03:20:48;101981.91;;;-0.80
74915;BMP280;63475;45.140;-75.616;2022-11-15T03:21:52;101957.38;;;-0.98
74915;BMP280;63475;45.140;-75.616;2022-11-15T03:23:04;102004.38;;;-0.65
74915;BMP280;63475;45.140;-75.616;2022-11-15T03:24:07;101982.16;;;-0.81
74915;BMP280;63475;45.140;-75.616;2022-11-15T03:25:11;102012.16;;;-0.65
74915;BMP280;63475;45.140;-75.616;2022-11-15T03:26:16;102006.97;;;-0.65
74915;BMP280;63475;45.140;-75.616;2022-11-15T03:27:21;102013.47;;;-0.68
74915;BMP280;63475;45.140;-75.616;2022-11-15T03:28:40;101975.81;;;-0.99
74915;BMP280;63475;45.140;-75.616;2022-11-15T03:29:47;101996.72;;;-0.85
74915;BMP280;63475;45.140;-75.616;2022-11-15T03:30:49;102003.44;;;-0.79
74915;BMP280;63475;45.140;-75.616;2022-11-15T03:31:57;101972.47;;;-1.00
74915;BMP280;63475;45.140;-75.616;2022-11-15T03:33:00;102017.13;;;-0.74
74915;BMP280;63475;45.140;-75.616;2022-11-15T03:34:05;102014.59;;;-0.79
74915;BMP280;63475;45.140;-75.616;2022-11-15T03:35:11;102015.63;;;-0.80
74915;BMP280;63475;45.140;-75.616;2022-11-15T03:36:14;101959.06;;;-1.17
74915;BMP280;63475;45.140;-75.616;2022-11-15T03:37:16;102021.59;;;-0.79
74915;BMP280;63475;45.140;-75.616;2022-11-15T03:38:29;101998.63;;;-0.96
74915;BMP280;63475;45.140;-75.616;2022-11-15T03:39:32;102025.78;;;-0.83
74915;BMP280;63475;45.140;-75.616;2022-11-15T03:40:48;102022.69;;;-0.85
74915;BMP280;63475;45.140;-75.616;2022-11-15T03:42:18;102015.47;;;-0.94
74915;BMP280;63475;45.140;-75.616;2022-11-15T03:44:36;102017.81;;;-0.92
74915;BMP280;63475;45.140;-75.616;2022-11-15T03:46:02;102016.47;;;-0.89
74915;BMP280;63475;45.140;-75.616;2022-11-15T03:47:25;102015.16;;;-0.87
74915;BMP280;63475;45.140;-75.616;2022-11-15T03:48:33;102002.00;;;-0.96
74915;BMP280;63475;45.140;-75.616;2022-11-15T03:49:40;101976.66;;;-1.09
74915;BMP280;63475;45.140;-75.616;2022-11-15T03:50:43;102021.63;;;-0.84
74915;BMP280;63475;45.140;-75.616;2022-11-15T03:51:47;102013.34;;;-0.86
74915;BMP280;63475;45.140;-75.616;2022-11-15T03:52:49;102024.00;;;-0.88
74915;BMP280;63475;45.140;-75.616;2022-11-15T03:53:50;101961.47;;;-1.26
74915;BMP280;63475;45.140;-75.616;2022-11-15T03:54:56;102027.41;;;-0.93
74915;BMP280;63475;45.140;-75.616;2022-11-15T03:55:57;102022.22;;;-0.93
74915;BMP280;63475;45.140;-75.616;2022-11-15T03:56:59;102023.53;;;-0.95
74915;BMP280;63475;45.140;-75.616;2022-11-15T03:58:01;101956.59;;;-1.42
74915;BMP280;63475;45.140;-75.616;2022-11-15T03:59:02;102021.75;;;-1.00
74915;BMP280;63475;45.140;-75.616;2022-11-15T04:00:04;102027.44;;;-0.98
74915;BMP280;63475;45.140;-75.616;2022-11-15T04:01:05;102021.75;;;-1.00
74915;BMP280;63475;45.140;-75.616;2022-11-15T04:02:06;102032.66;;;-1.03
74915;BMP280;63475;45.140;-75.616;2022-11-15T04:03:07;102020.75;;;-1.09
74915;BMP280;63475;45.140;-75.616;2022-11-15T04:04:08;102032.13;;;-1.05
74915;BMP280;63475;45.140;-75.616;2022-11-15T04:05:09;102038.09;;;-1.04
74915;BMP280;63475;45.140;-75.616;2022-11-15T04:06:10;102036.81;;;-1.07
74915;BMP280;63475;45.140;-75.616;2022-11-15T04:07:11;102036.34;;;-1.14
74915;BMP280;63475;45.140;-75.616;2022-11-15T04:08:21;102005.31;;;-1.34
74915;BMP280;63475;45.140;-75.616;2022-11-15T04:09:22;102045.13;;;-1.10
74915;BMP280;63475;45.140;-75.616;2022-11-15T04:10:22;102017.78;;;-1.31
74915;BMP280;63475;45.140;-75.616;2022-11-15T04:11:23;101996.81;;;-1.50
74915;BMP280;63475;45.140;-75.616;2022-11-15T04:12:24;102019.84;;;-1.38
74915;BMP280;63475;45.140;-75.616;2022-11-15T04:13:31;102057.63;;;-1.17
74915;BMP280;63475;45.140;-75.616;2022-11-15T04:14:32;102039.03;;;-1.29
74915;BMP280;63475;45.140;-75.616;2022-11-15T04:15:33;102046.81;;;-1.29
74915;BMP280;63475;45.140;-75.616;2022-11-15T04:16:34;102063.84;;;-1.18
74915;BMP280;63475;45.140;-75.616;2022-11-15T04:17:39;102066.97;;;-1.21
74915;BMP280;63475;45.140;-75.616;2022-11-15T04:18:40;102065.94;;;-1.20
74915;BMP280;63475;45.140;-75.616;2022-11-15T04:19:41;102049.38;;;-1.34
74915;BMP280;63475;45.140;-75.616;2022-11-15T04:21:01;102078.91;;;-1.20
74915;BMP280;63475;45.140;-75.616;2022-11-15T04:22:20;102075.53;;;-1.20
74915;BMP280;63475;45.140;-75.616;2022-11-15T04:23:40;102068.09;;;-1.32
74915;BMP280;63475;45.140;-75.616;2022-11-15T04:24:59;102085.13;;;-1.21
74915;BMP280;63475;45.140;-75.616;2022-11-15T04:26:05;102037.28;;;-1.54
74915;BMP280;63475;45.140;-75.616;2022-11-15T04:27:06;102077.88;;;-1.19
74915;BMP280;63475;45.140;-75.616;2022-11-15T04:28:07;102073.72;;;-1.20
74915;BMP280;63475;45.140;-75.616;2022-11-15T04:29:08;102075.28;;;-1.19
74915;BMP280;63475;45.140;-75.616;2022-11-15T04:30:38;102069.31;;;-1.19
74915;BMP280;63475;45.140;-75.616;2022-11-15T04:31:39;101967.44;;;-1.95
74915;BMP280;63475;45.140;-75.616;2022-11-15T04:32:40;102048.88;;;-1.41
74915;BMP280;63475;45.140;-75.616;2022-11-15T04:33:41;102083.63;;;-1.27
74915;BMP280;63475;45.140;-75.616;2022-11-15T04:34:44;102078.44;;;-1.27
74915;BMP280;63475;45.140;-75.616;2022-11-15T04:35:45;102082.34;;;-1.30
74915;BMP280;63475;45.140;-75.616;2022-11-15T04:37:06;102063.94;;;-1.43
74915;BMP280;63475;45.140;-75.616;2022-11-15T04:38:13;102084.66;;;-1.28
74915;BMP280;63475;45.140;-75.616;2022-11-15T04:39:14;102079.47;;;-1.28
74915;BMP280;63475;45.140;-75.616;2022-11-15T04:40:15;102083.63;;;-1.27
74915;BMP280;63475;45.140;-75.616;2022-11-15T04:41:16;102039.09;;;-1.55
74915;BMP280;63475;45.140;-75.616;2022-11-15T04:42:17;102092.44;;;-1.28
74915;BMP280;63475;45.140;-75.616;2022-11-15T04:43:18;102073.53;;;-1.34
74915;BMP280;63475;45.140;-75.616;2022-11-15T04:44:19;102083.38;;;-1.31
74915;BMP280;63475;45.140;-75.616;2022-11-15T04:45:20;102090.88;;;-1.29
74915;BMP280;63475;45.140;-75.616;2022-11-15T04:46:21;102088.28;;;-1.29
74915;BMP280;63475;45.140;-75.616;2022-11-15T04:47:22;102077.91;;;-1.34
74915;BMP280;63475;45.140;-75.616;2022-11-15T04:48:23;102090.34;;;-1.26
74915;BMP280;63475;45.140;-75.616;2022-11-15T04:49:24;102093.44;;;-1.24
74915;BMP280;63475;45.140;-75.616;2022-11-15T04:50:25;102098.88;;;-1.20
74915;BMP280;63475;45.140;-75.616;2022-11-15T04:51:26;102096.78;;;-1.13
74915;BMP280;63475;45.140;-75.616;2022-11-15T04:52:27;102092.63;;;-1.14
74915;BMP280;63475;45.140;-75.616;2022-11-15T04:53:28;102096.00;;;-1.14
74915;BMP280;63475;45.140;-75.616;2022-11-15T04:54:29;102067.56;;;-1.29
74915;BMP280;63475;45.140;-75.616;2022-11-15T04:55:29;102095.97;;;-1.04
74915;BMP280;63475;45.140;-75.616;2022-11-15T04:56:30;102094.94;;;-1.08
74915;BMP280;63475;45.140;-75.616;2022-11-15T04:57:31;102098.28;;;-1.07
74915;BMP280;63475;45.140;-75.616;2022-11-15T04:58:32;102099.84;;;-1.06
74915;BMP280;63475;45.140;-75.616;2022-11-15T04:59:36;102103.47;;;-1.07
74915;BMP280;63475;45.140;-75.616;2022-11-15T05:02:15;102115.72;;;-1.18
74915;BMP280;63475;45.140;-75.616;2022-11-15T05:03:16;102116.75;;;-1.14
74915;BMP280;63475;45.140;-75.616;2022-11-15T05:04:56;102119.34;;;-1.14
74915;BMP280;63475;45.140;-75.616;2022-11-15T05:05:57;102113.38;;;-1.14
74915;BMP280;63475;45.140;-75.616;2022-11-15T05:07:36;102108.69;;;-1.12
74915;BMP280;63475;45.140;-75.616;2022-11-15T05:08:37;102084.41;;;-1.32
74915;BMP280;63475;45.140;-75.616;2022-11-15T05:09:37;102116.75;;;-1.14
74915;BMP280;63475;45.140;-75.616;2022-11-15T05:10:38;102119.34;;;-1.14
74915;BMP280;63475;45.140;-75.616;2022-11-15T05:11:48;102113.38;;;-1.14
74915;BMP280;63475;45.140;-75.616;2022-11-15T05:12:49;102065.53;;;-1.52
74915;BMP280;63475;45.140;-75.616;2022-11-15T05:13:50;102102.28;;;-1.25
74915;BMP280;63475;45.140;-75.616;2022-11-15T05:14:51;102124.03;;;-1.16
74915;BMP280;63475;45.140;-75.616;2022-11-15T05:15:52;102121.41;;;-1.16
74915;BMP280;63475;45.140;-75.616;2022-11-15T05:16:53;102122.44;;;-1.12
74915;BMP280;63475;45.140;-75.616;2022-11-15T05:17:58;102127.38;;;-1.15
74915;BMP280;63475;45.140;-75.616;2022-11-15T05:19:00;102126.38;;;-1.19
74915;BMP280;63475;45.140;-75.616;2022-11-15T05:20:00;102075.91;;;-1.52
74915;BMP280;63475;45.140;-75.616;2022-11-15T05:21:10;102100.75;;;-1.36
74915;BMP280;63475;45.140;-75.616;2022-11-15T05:22:11;102115.75;;;-1.23
74915;BMP280;63475;45.140;-75.616;2022-11-15T05:23:12;102112.66;;;-1.25
74915;BMP280;63475;45.140;-75.616;2022-11-15T05:24:16;102112.91;;;-1.27
74915;BMP280;63475;45.140;-75.616;2022-11-15T05:25:17;102111.09;;;-1.26
74915;BMP280;63475;45.140;-75.616;2022-11-15T05:26:18;102108.78;;;-1.28
74915;BMP280;63475;45.140;-75.616;2022-11-15T05:27:19;102108.53;;;-1.31
74915;BMP280;63475;45.140;-75.616;2022-11-15T05:28:20;102108.25;;;-1.35
74915;BMP280;63475;45.140;-75.616;2022-11-15T05:29:21;102106.69;;;-1.36
74915;BMP280;63475;45.140;-75.616;2022-11-15T05:30:22;102067.16;;;-1.72
74915;BMP280;63475;45.140;-75.616;2022-11-15T05:31:23;102086.56;;;-1.64
74915;BMP280;63475;45.140;-75.616;2022-11-15T05:32:25;102125.63;;;-1.45
74915;BMP280;63475;45.140;-75.616;2022-11-15T05:33:26;102095.91;;;-1.68
74915;BMP280;63475;45.140;-75.616;2022-11-15T05:34:27;102129.53;;;-1.48
74915;BMP280;63475;45.140;-75.616;2022-11-15T05:35:37;102125.38;;;-1.49
74915;BMP280;63475;45.140;-75.616;2022-11-15T05:36:42;102116.09;;;-1.55
74915;BMP280;63475;45.140;-75.616;2022-11-15T05:37:43;102120.72;;;-1.52
74915;BMP280;63475;45.140;-75.616;2022-11-15T05:38:45;102124.09;;;-1.51
74915;BMP280;63475;45.140;-75.616;2022-11-15T05:39:47;102094.88;;;-1.72
74915;BMP280;63475;45.140;-75.616;2022-11-15T05:40:48;102121.00;;;-1.53
74915;BMP280;63475;45.140;-75.616;2022-11-15T05:41:52;102119.22;;;-1.63
74915;BMP280;63475;45.140;-75.616;2022-11-15T05:42:54;102118.94;;;-1.62
74915;BMP280;63475;45.140;-75.616;2022-11-15T05:43:55;102125.16;;;-1.58
74915;BMP280;63475;45.140;-75.616;2022-11-15T05:44:56;102119.47;;;-1.60
74915;BMP280;63475;45.140;-75.616;2022-11-15T05:45:59;102120.75;;;-1.57
74915;BMP280;63475;45.140;-75.616;2022-11-15T05:47:01;102106.00;;;-1.67
74915;BMP280;63475;45.140;-75.616;2022-11-15T05:48:06;102120.22;;;-1.54
74915;BMP280;63475;45.140;-75.616;2022-11-15T05:49:12;102125.66;;;-1.56
74915;BMP280;63475;45.140;-75.616;2022-11-15T05:50:16;102125.94;;;-1.57
74915;BMP280;63475;45.140;-75.616;2022-11-15T05:51:18;102125.66;;;-1.56
74915;BMP280;63475;45.140;-75.616;2022-11-15T05:52:25;102114.78;;;-1.58
74915;BMP280;63475;45.140;-75.616;2022-11-15T05:53:26;102119.97;;;-1.58
74915;BMP280;63475;45.140;-75.616;2022-11-15T05:54:27;102061.72;;;-1.91
74915;BMP280;63475;45.140;-75.616;2022-11-15T05:55:29;102064.56;;;-1.97
74915;BMP280;63475;45.140;-75.616;2022-11-15T05:56:30;102118.44;;;-1.64
74915;BMP280;63475;45.140;-75.616;2022-11-15T05:57:32;102127.78;;;-1.63
74915;BMP280;63475;45.140;-75.616;2022-11-15T05:58:33;102081.16;;;-1.93
74915;BMP280;63475;45.140;-75.616;2022-11-15T05:59:34;102079.34;;;-1.98
74915;BMP280;63475;45.140;-75.616;2022-11-15T06:00:36;102076.25;;;-2.00
74915;BMP280;63475;45.140;-75.616;2022-11-15T06:01:38;102086.56;;;-1.90
74915;BMP280;63475;45.140;-75.616;2022-11-15T06:02:39;102129.84;;;-1.70
74915;BMP280;63475;45.140;-75.616;2022-11-15T06:03:40;102125.72;;;-1.71
74915;BMP280;63475;45.140;-75.616;2022-11-15T06:04:41;102126.22;;;-1.74
74915;BMP280;63475;45.140;-75.616;2022-11-15T06:05:42;102110.94;;;-1.86
74915;BMP280;63475;45.140;-75.616;2022-11-15T06:06:43;102125.97;;;-1.77
74915;BMP280;63475;45.140;-75.616;2022-11-15T06:07:43;102121.03;;;-1.79
74915;BMP280;63475;45.140;-75.616;2022-11-15T06:08:44;102122.84;;;-1.79
74915;BMP280;63475;45.140;-75.616;2022-11-15T06:09:45;102127.25;;;-1.80
74915;BMP280;63475;45.140;-75.616;2022-11-15T06:10:46;102120.25;;;-1.79
74915;BMP280;63475;45.140;-75.616;2022-11-15T06:11:47;102127.25;;;-1.75
74915;BMP280;63475;45.140;-75.616;2022-11-15T06:12:59;102119.25;;;-1.73
74915;BMP280;63475;45.140;-75.616;2022-11-15T06:14:00;102125.19;;;-1.73
74915;BMP280;63475;45.140;-75.616;2022-11-15T06:15:01;102128.81;;;-1.74
74915;BMP280;63475;45.140;-75.616;2022-11-15T06:16:02;102129.06;;;-1.75
74915;BMP280;63475;45.140;-75.616;2022-11-15T06:17:03;102126.72;;;-1.77
74915;BMP280;63475;45.140;-75.616;2022-11-15T06:18:04;102130.88;;;-1.76
74915;BMP280;63475;45.140;-75.616;2022-11-15T06:19:06;102129.84;;;-1.75
74915;BMP280;63475;45.140;-75.616;2022-11-15T06:20:08;102131.38;;;-1.74
74915;BMP280;63475;45.140;-75.616;2022-11-15T06:21:09;102130.91;;;-1.71
74915;BMP280;63475;45.140;-75.616;2022-11-15T06:22:10;102128.56;;;-1.72
74915;BMP280;63475;45.140;-75.616;2022-11-15T06:23:11;102132.19;;;-1.73
74915;BMP280;63475;45.140;-75.616;2022-11-15T06:24:12;102127.78;;;-1.73
74915;BMP280;63475;45.140;-75.616;2022-11-15T06:25:13;102095.13;;;-1.94
74915;BMP280;63475;45.140;-75.616;2022-11-15T06:26:14;102130.63;;;-1.74
74915;BMP280;63475;45.140;-75.616;2022-11-15T06:27:14;102120.78;;;-1.77
74915;BMP280;63475;45.140;-75.616;2022-11-15T06:28:15;102121.56;;;-1.72
74915;BMP280;63475;45.140;-75.616;2022-11-15T06:29:16;102122.63;;;-1.73
74915;BMP280;63475;45.140;-75.616;2022-11-15T06:30:17;102126.22;;;-1.69